createdAt,value
2022-08-20T00:02:14.450Z,98732.63
2022-08-20T00:04:41.762Z,98733.03
2022-08-20T00:07:09.024Z,98729.72
2022-08-20T00:09:36.982Z,98734.59
2022-08-20T00:12:07.531Z,98731.69
2022-08-20T00:14:37.143Z,98741.28
2022-08-20T00:17:05.951Z,98734.84
2022-08-20T00:19:34.233Z,98742.00
2022-08-20T00:22:01.466Z,98744.06
2022-08-20T00:24:28.721Z,98746.16
2022-08-20T00:26:56.130Z,98746.63
2022-08-20T00:29:23.356Z,98741.09
2022-08-20T00:31:51.102Z,98748.16
2022-08-20T00:34:18.931Z,98736.47
2022-08-20T00:36:46.943Z,98743.97
2022-08-20T00:39:14.623Z,98742.50
2022-08-20T00:41:41.967Z,98744.28
2022-08-20T00:44:18.539Z,98749.94
2022-08-20T00:46:47.087Z,98754.00
2022-08-20T00:49:27.933Z,98762.53
2022-08-20T00:52:16.559Z,98763.75
2022-08-20T00:55:01.336Z,98756.09
2022-08-20T00:58:48.120Z,98756.16
2022-08-20T01:01:15.875Z,98753.78
2022-08-20T01:03:43.720Z,98755.59
2022-08-20T01:07:33.528Z,98760.22
2022-08-20T01:10:19.525Z,98768.81
2022-08-20T01:14:12.963Z,98761.31
2022-08-20T01:16:40.699Z,98773.88
2022-08-20T01:20:23.899Z,98768.44
2022-08-20T01:24:06.666Z,98785.97
2022-08-20T01:27:55.195Z,98779.53
2022-08-20T01:31:38.510Z,98783.13
2022-08-20T01:34:11.724Z,98776.59
2022-08-20T01:37:54.524Z,98782.09
2022-08-20T01:40:48.766Z,98787.09
2022-08-20T01:44:31.556Z,98785.00
2022-08-20T01:47:31.367Z,98787.31
2022-08-20T01:50:18.482Z,98785.16
2022-08-20T01:54:01.349Z,98790.78
2022-08-20T01:56:32.180Z,98793.81
2022-08-20T01:59:06.857Z,98794.03
2022-08-20T02:01:46.283Z,98795.59
2022-08-20T02:04:18.209Z,98798.19
2022-08-20T02:06:57.064Z,98796.78
2022-08-20T02:09:30.692Z,98801.41
2022-08-20T02:12:00.991Z,98791.09
2022-08-20T02:14:30.360Z,98797.97
2022-08-20T02:16:58.857Z,98798.19
2022-08-20T02:19:47.425Z,98792.16
2022-08-20T02:22:53.027Z,98806.13
2022-08-20T02:25:27.175Z,98811.00
2022-08-20T02:28:07.826Z,98812.38
2022-08-20T02:30:46.853Z,98805.59
2022-08-20T02:33:17.992Z,98814.59
2022-08-20T02:35:49.816Z,98809.16
2022-08-20T02:38:17.539Z,98805.63
2022-08-20T02:40:51.866Z,98808.63
2022-08-20T02:43:20.134Z,98803.41
2022-08-20T02:45:47.813Z,98802.88
2022-08-20T02:48:21.297Z,98808.22
2022-08-20T02:51:01.718Z,98811.50
2022-08-20T02:53:33.850Z,98799.94
2022-08-20T02:56:01.955Z,98794.66
2022-08-20T02:58:29.239Z,98794.66
2022-08-20T03:00:56.825Z,98795.88
2022-08-20T03:03:24.871Z,98788.97
2022-08-20T03:05:57.631Z,98791.50
2022-08-20T03:08:27.172Z,98798.13
2022-08-20T03:10:55.501Z,98793.38
2022-08-20T03:13:24.204Z,98790.25
2022-08-20T03:16:00.357Z,98787.56
2022-08-20T03:18:37.481Z,98782.34
2022-08-20T03:21:08.013Z,98794.00
2022-08-20T03:23:40.400Z,98798.38
2022-08-20T03:26:12.892Z,98794.19
2022-08-20T03:28:41.710Z,98786.63
2022-08-20T03:31:10.141Z,98785.03
2022-08-20T03:33:52.692Z,98789.84
2022-08-20T03:36:28.245Z,98782.84
2022-08-20T03:39:01.457Z,98780.75
2022-08-20T03:41:29.160Z,98782.91
2022-08-20T03:43:56.549Z,98792.59
2022-08-20T03:46:25.153Z,98788.19
2022-08-20T03:48:59.981Z,98798.91
2022-08-20T03:51:35.147Z,98803.34
2022-08-20T03:54:20.289Z,98795.94
2022-08-20T03:56:47.741Z,98797.34
2022-08-20T03:59:15.407Z,98806.03
2022-08-20T04:01:46.143Z,98810.25
2022-08-20T04:04:15.169Z,98809.66
2022-08-20T04:06:43.458Z,98815.19
2022-08-20T04:09:12.338Z,98803.63
2022-08-20T04:11:41.536Z,98815.22
2022-08-20T04:14:11.408Z,98803.59
2022-08-20T04:16:45.527Z,98801.84
2022-08-20T04:19:15.158Z,98807.09
2022-08-20T04:21:42.465Z,98821.78
2022-08-20T04:24:22.154Z,98815.59
2022-08-20T04:26:58.912Z,98824.44
2022-08-20T04:29:32.174Z,98820.06
2022-08-20T04:32:03.393Z,98822.41
2022-08-20T04:34:35.072Z,98823.78
2022-08-20T04:37:02.695Z,98825.78
2022-08-20T04:39:29.958Z,98831.09
2022-08-20T04:41:57.378Z,98823.84
2022-08-20T04:44:24.681Z,98831.69
2022-08-20T04:46:51.975Z,98828.72
2022-08-20T04:49:26.209Z,98828.31
2022-08-20T04:51:54.768Z,98827.44
2022-08-20T04:54:22.201Z,98836.06
2022-08-20T04:56:49.556Z,98842.13
2022-08-20T04:59:16.801Z,98845.41
2022-08-20T05:01:44.031Z,98836.94
2022-08-20T05:04:11.280Z,98845.38
2022-08-20T05:06:40.623Z,98843.09
2022-08-20T05:09:07.927Z,98849.34
2022-08-20T05:11:36.952Z,98846.66
2022-08-20T05:14:09.853Z,98847.59
2022-08-20T05:16:41.075Z,98852.09
2022-08-20T05:19:12.592Z,98850.81
2022-08-20T05:21:40.998Z,98857.91
2022-08-20T05:24:10.143Z,98850.38
2022-08-20T05:26:37.471Z,98852.41
2022-08-20T05:29:06.840Z,98866.28
2022-08-20T05:31:35.543Z,98863.13
2022-08-20T05:34:11.720Z,98871.78
2022-08-20T05:36:49.211Z,98867.66
2022-08-20T05:39:20.375Z,98870.47
2022-08-20T05:41:51.248Z,98869.06
2022-08-20T05:44:19.762Z,98879.34
2022-08-20T05:46:48.575Z,98879.16
2022-08-20T05:49:21.764Z,98875.25
2022-08-20T05:51:51.323Z,98880.41
2022-08-20T05:54:18.816Z,98877.47
2022-08-20T05:56:46.103Z,98877.94
2022-08-20T05:59:14.106Z,98876.81
2022-08-20T06:01:43.064Z,98877.97
2022-08-20T06:04:28.631Z,98867.41
2022-08-20T06:07:06.840Z,98873.97
2022-08-20T06:09:36.213Z,98874.97
2022-08-20T06:12:07.728Z,98865.66
2022-08-20T06:14:35.939Z,98879.75
2022-08-20T06:17:10.520Z,98878.53
2022-08-20T06:19:44.177Z,98882.38
2022-08-20T06:22:18.416Z,98886.06
2022-08-20T06:24:50.196Z,98880.31
2022-08-20T06:27:18.377Z,98875.25
2022-08-20T06:29:46.099Z,98875.41
2022-08-20T06:32:14.380Z,98887.47
2022-08-20T06:34:49.043Z,98883.38
2022-08-20T06:37:31.552Z,98887.78
2022-08-20T06:40:18.337Z,98888.31
2022-08-20T06:42:48.739Z,98883.59
2022-08-20T06:45:25.801Z,98887.13
2022-08-20T06:47:58.526Z,98889.88
2022-08-20T06:50:43.218Z,98880.94
2022-08-20T06:53:20.828Z,98886.16
2022-08-20T06:55:54.494Z,98883.34
2022-08-20T06:58:36.955Z,98884.94
2022-08-20T07:01:11.197Z,98888.56
2022-08-20T07:03:54.402Z,98891.31
2022-08-20T07:06:27.515Z,98890.84
2022-08-20T07:08:56.050Z,98891.75
2022-08-20T07:11:27.829Z,98892.38
2022-08-20T07:13:58.693Z,98901.47
2022-08-20T07:16:27.187Z,98899.75
2022-08-20T07:18:54.789Z,98900.16
2022-08-20T07:21:22.039Z,98900.78
2022-08-20T07:23:49.409Z,98903.25
2022-08-20T07:26:18.042Z,98898.53
2022-08-20T07:28:45.912Z,98908.72
2022-08-20T07:31:32.172Z,98913.34
2022-08-20T07:34:03.499Z,98922.63
2022-08-20T07:36:31.503Z,98916.81
2022-08-20T07:38:59.248Z,98919.06
2022-08-20T07:41:34.037Z,98920.25
2022-08-20T07:44:02.354Z,98917.75
2022-08-20T07:46:31.605Z,98922.66
2022-08-20T07:48:59.525Z,98921.19
2022-08-20T07:51:27.571Z,98919.59
2022-08-20T07:53:54.821Z,98920.81
2022-08-20T07:56:24.442Z,98929.22
2022-08-20T07:58:59.886Z,98924.63
2022-08-20T08:01:32.111Z,98934.13
2022-08-20T08:04:00.842Z,98927.53
2022-08-20T08:06:31.484Z,98921.88
2022-08-20T08:09:08.613Z,98927.28
2022-08-20T08:11:44.965Z,98929.75
2022-08-20T08:14:23.323Z,98930.50
2022-08-20T08:16:54.616Z,98923.53
2022-08-20T08:19:22.320Z,98920.00
2022-08-20T08:21:49.875Z,98929.63
2022-08-20T08:24:24.293Z,98924.22
2022-08-20T08:26:53.768Z,98929.97
2022-08-20T08:29:21.038Z,98931.72
2022-08-20T08:31:48.464Z,98922.16
2022-08-20T08:34:15.770Z,98922.88
2022-08-20T08:43:31.684Z,98917.19
2022-08-20T08:46:09.403Z,98919.94
2022-08-20T08:48:43.753Z,98922.91
2022-08-20T08:51:16.768Z,98926.28
2022-08-20T08:53:54.689Z,98926.06
2022-08-20T08:56:29.989Z,98922.78
2022-08-20T08:59:07.673Z,98921.13
2022-08-20T09:01:54.369Z,98917.97
2022-08-20T09:04:37.107Z,98918.22
2022-08-20T09:07:10.963Z,98910.13
2022-08-20T09:09:44.142Z,98907.28
2022-08-20T09:12:22.763Z,98914.84
2022-08-20T09:14:51.777Z,98904.75
2022-08-20T09:17:22.666Z,98913.41
2022-08-20T09:19:52.220Z,98916.19
2022-08-20T09:22:25.918Z,98925.72
2022-08-20T09:24:53.854Z,98935.94
2022-08-20T09:27:21.150Z,98923.25
2022-08-20T09:29:48.623Z,98930.47
2022-08-20T09:32:24.681Z,98918.78
2022-08-20T09:34:56.496Z,98907.22
2022-08-20T09:37:29.853Z,98901.28
2022-08-20T09:39:59.698Z,98899.63
2022-08-20T09:42:32.223Z,98897.63
2022-08-20T09:45:00.747Z,98892.63
2022-08-20T09:47:28.245Z,98884.19
2022-08-20T09:49:55.621Z,98877.59
2022-08-20T09:52:40.859Z,98879.53
2022-08-20T09:55:34.399Z,98895.69
2022-08-20T09:58:29.880Z,98906.94
2022-08-20T10:00:57.345Z,98898.44
2022-08-20T10:03:24.621Z,98882.91
2022-08-20T10:05:51.866Z,98880.53
2022-08-20T10:08:19.531Z,98886.31
2022-08-20T10:10:47.031Z,98897.16
2022-08-20T10:13:16.268Z,98887.69
2022-08-20T10:15:44.078Z,98895.44
2022-08-20T10:18:12.543Z,98892.94
2022-08-20T10:20:40.816Z,98886.19
2022-08-20T10:23:08.797Z,98889.25
2022-08-20T10:25:36.024Z,98886.88
2022-08-20T10:28:05.233Z,98883.13
2022-08-20T10:30:32.928Z,98882.38
2022-08-20T10:33:00.338Z,98880.38
2022-08-20T10:35:28.356Z,98880.03
2022-08-20T10:37:56.161Z,98873.97
2022-08-20T10:40:23.711Z,98868.00
2022-08-20T10:42:51.686Z,98878.22
2022-08-20T10:45:25.822Z,98875.00
2022-08-20T10:48:21.512Z,98877.94
2022-08-20T10:50:50.684Z,98879.63
2022-08-20T10:53:19.250Z,98878.00
2022-08-20T10:55:46.917Z,98869.78
2022-08-20T10:58:14.272Z,98872.69
2022-08-20T11:00:42.321Z,98869.50
2022-08-20T11:03:09.565Z,98870.44
2022-08-20T11:05:37.096Z,98877.38
2022-08-20T11:08:06.145Z,98886.56
2022-08-20T11:10:36.627Z,98890.06
2022-08-20T11:13:07.026Z,98894.22
2022-08-20T11:15:42.369Z,98892.31
2022-08-20T11:18:11.801Z,98897.75
2022-08-20T11:20:39.589Z,98888.22
2022-08-20T11:23:06.792Z,98894.28
2022-08-20T11:25:34.050Z,98894.13
2022-08-20T11:28:01.300Z,98897.09
2022-08-20T11:30:36.241Z,98888.53
2022-08-20T11:33:05.434Z,98894.25
2022-08-20T11:35:49.278Z,98898.19
2022-08-20T11:38:19.065Z,98913.38
2022-08-20T11:40:46.981Z,98906.31
2022-08-20T11:43:17.006Z,98911.59
2022-08-20T11:45:51.648Z,98921.56
2022-08-20T11:48:19.233Z,98921.03
2022-08-20T11:50:47.433Z,98941.69
2022-08-20T11:53:15.470Z,98933.38
2022-08-20T11:55:44.068Z,98933.28
2022-08-20T11:58:11.912Z,98922.44
2022-08-20T12:00:39.426Z,98921.03
2022-08-20T12:03:10.173Z,98914.25
2022-08-20T12:05:41.050Z,98919.22
2022-08-20T12:08:26.919Z,98922.44
2022-08-20T12:11:02.528Z,98926.00
2022-08-20T12:13:47.997Z,98923.13
2022-08-20T12:16:19.429Z,98933.28
2022-08-20T12:18:48.308Z,98924.31
2022-08-20T12:21:16.707Z,98927.09
2022-08-20T12:23:44.235Z,98930.88
2022-08-20T12:26:11.896Z,98928.19
2022-08-20T12:28:39.103Z,98938.91
2022-08-20T12:31:06.636Z,98924.63
2022-08-20T12:33:34.110Z,98927.44
2022-08-20T12:36:04.231Z,98922.13
2022-08-20T12:38:31.694Z,98917.19
2022-08-20T12:40:58.888Z,98912.47
2022-08-20T12:43:26.158Z,98914.47
2022-08-20T12:45:53.389Z,98911.72
2022-08-20T12:48:21.176Z,98903.13
2022-08-20T12:50:49.958Z,98897.75
2022-08-20T12:53:17.554Z,98906.16
2022-08-20T12:55:46.404Z,98907.13
2022-08-20T12:58:13.784Z,98907.69
2022-08-20T13:00:47.849Z,98913.56
2022-08-20T13:03:20.719Z,98918.03
2022-08-20T13:05:49.188Z,98910.66
2022-08-20T13:08:19.069Z,98913.44
2022-08-20T13:10:46.865Z,98906.81
2022-08-20T13:13:20.494Z,98904.84
2022-08-20T13:15:51.225Z,98902.63
2022-08-20T13:18:19.868Z,98909.56
2022-08-20T13:20:47.647Z,98911.78
2022-08-20T13:23:15.003Z,98908.69
2022-08-20T13:25:42.274Z,98913.50
2022-08-20T13:28:09.584Z,98923.63
2022-08-20T13:30:38.784Z,98930.56
2022-08-20T13:33:06.347Z,98949.91
2022-08-20T13:35:34.053Z,98946.09
2022-08-20T13:38:01.859Z,98946.25
2022-08-20T13:40:29.304Z,98946.50
2022-08-20T13:42:56.766Z,98951.38
2022-08-20T13:45:25.324Z,98952.53
2022-08-20T13:47:56.211Z,98943.06
2022-08-20T13:50:26.267Z,98949.22
2022-08-20T13:52:54.294Z,98943.34
2022-08-20T13:55:27.863Z,98931.34
2022-08-20T13:57:57.817Z,98927.88
2022-08-20T14:00:32.321Z,98923.19
2022-08-20T14:03:06.566Z,98920.94
2022-08-20T14:05:39.155Z,98925.72
2022-08-20T14:08:17.932Z,98929.16
2022-08-20T14:10:51.403Z,98927.22
2022-08-20T14:13:24.960Z,98915.00
2022-08-20T14:15:53.383Z,98917.41
2022-08-20T14:18:21.084Z,98918.66
2022-08-20T14:20:48.798Z,98911.16
2022-08-20T14:23:16.345Z,98910.28
2022-08-20T14:25:49.367Z,98906.78
2022-08-20T14:28:22.741Z,98897.78
2022-08-20T14:30:53.220Z,98910.94
2022-08-20T14:33:24.082Z,98895.53
2022-08-20T14:35:53.066Z,98894.59
2022-08-20T14:38:20.936Z,98890.22
2022-08-20T14:40:50.203Z,98880.25
2022-08-20T14:43:17.709Z,98873.72
2022-08-20T14:45:44.988Z,98875.06
2022-08-20T14:48:12.255Z,98882.06
2022-08-20T14:50:40.500Z,98879.94
2022-08-20T14:53:09.156Z,98872.69
2022-08-20T14:55:38.384Z,98874.28
2022-08-20T14:58:15.222Z,98875.66
2022-08-20T15:00:44.085Z,98870.66
2022-08-20T15:03:13.402Z,98881.06
2022-08-20T15:05:40.849Z,98879.84
2022-08-20T15:08:35.348Z,98879.41
2022-08-20T15:11:02.819Z,98872.00
2022-08-20T15:13:30.358Z,98874.78
2022-08-20T15:15:57.775Z,98867.88
2022-08-20T15:18:26.888Z,98867.00
2022-08-20T15:20:54.245Z,98859.25
2022-08-20T15:23:21.760Z,98855.97
2022-08-20T15:25:48.961Z,98858.44
2022-08-20T15:28:16.400Z,98854.47
2022-08-20T15:30:43.665Z,98849.97
2022-08-20T15:33:11.848Z,98852.34
2022-08-20T15:35:39.655Z,98851.94
2022-08-20T15:38:11.182Z,98855.22
2022-08-20T15:40:38.606Z,98843.91
2022-08-20T15:43:06.406Z,98845.25
2022-08-20T15:45:35.738Z,98856.19
2022-08-20T15:48:15.527Z,98852.09
2022-08-20T15:51:10.743Z,98854.41
2022-08-20T15:53:53.920Z,98859.19
2022-08-20T15:57:03.844Z,98857.41
2022-08-20T16:00:20.029Z,98859.06
2022-08-20T16:03:10.795Z,98853.31
2022-08-20T16:06:16.926Z,98853.38
2022-08-20T16:09:32.957Z,98869.22
2022-08-20T16:12:18.146Z,98856.13
2022-08-20T16:14:51.015Z,98853.91
2022-08-20T16:17:53.860Z,98856.47
2022-08-20T16:20:48.076Z,98861.31
2022-08-20T16:24:31.035Z,98863.47
2022-08-20T16:28:13.606Z,98865.69
2022-08-20T16:30:48.744Z,98862.94
2022-08-20T16:34:34.354Z,98865.72
2022-08-20T16:37:37.302Z,98870.13
2022-08-20T16:41:19.515Z,98875.28
2022-08-20T16:44:07.724Z,98883.22
2022-08-20T16:47:50.592Z,98875.03
2022-08-20T16:50:30.073Z,98877.13
2022-08-20T16:54:12.908Z,98876.44
2022-08-20T16:57:00.905Z,98873.47
2022-08-20T17:00:45.310Z,98874.53
2022-08-20T17:03:39.928Z,98866.69
2022-08-20T17:07:26.771Z,98873.41
2022-08-20T17:10:17.673Z,98872.88
2022-08-20T17:14:00.699Z,98869.78
2022-08-20T17:16:39.778Z,98864.69
2022-08-20T17:19:28.723Z,98870.16
2022-08-20T17:22:10.795Z,98863.53
2022-08-20T17:24:38.682Z,98865.66
2022-08-20T17:27:16.958Z,98864.47
2022-08-20T17:29:56.712Z,98859.13
2022-08-20T17:32:29.157Z,98872.06
2022-08-20T17:35:01.795Z,98868.75
2022-08-20T17:37:40.577Z,98875.00
2022-08-20T17:40:20.178Z,98863.50
2022-08-20T17:42:59.262Z,98873.47
2022-08-20T17:45:44.276Z,98876.00
2022-08-20T17:48:21.887Z,98870.38
2022-08-20T17:50:52.272Z,98870.66
2022-08-20T17:53:40.586Z,98877.34
2022-08-20T17:56:27.899Z,98878.84
2022-08-20T17:59:07.023Z,98877.09
2022-08-20T18:01:38.307Z,98873.38
2022-08-20T18:04:05.681Z,98873.88
2022-08-20T18:06:42.159Z,98870.69
2022-08-20T18:09:30.243Z,98881.41
2022-08-20T18:12:35.990Z,98879.91
2022-08-20T18:15:42.336Z,98878.03
2022-08-20T18:18:57.498Z,98882.97
2022-08-20T18:22:12.299Z,98874.19
2022-08-20T18:25:15.219Z,98875.78
2022-08-20T18:27:53.409Z,98889.84
2022-08-20T18:30:25.921Z,98887.50
2022-08-20T18:33:07.990Z,98887.34
2022-08-20T18:35:45.884Z,98892.81
2022-08-20T18:38:23.314Z,98887.63
2022-08-20T18:40:55.370Z,98897.41
2022-08-20T18:43:31.478Z,98889.88
2022-08-20T18:46:20.895Z,98894.66
2022-08-20T18:49:01.145Z,98898.94
2022-08-20T18:51:49.405Z,98900.34
2022-08-20T18:54:32.195Z,98894.78
2022-08-20T18:57:52.586Z,98896.03
2022-08-20T19:00:26.426Z,98899.66
2022-08-20T19:03:17.727Z,98898.84
2022-08-20T19:05:46.395Z,98904.94
2022-08-20T19:08:30.445Z,98904.63
2022-08-20T19:11:48.153Z,98902.78
2022-08-20T19:14:44.751Z,98914.84
2022-08-20T19:17:32.727Z,98899.63
2022-08-20T19:20:11.824Z,98909.97
2022-08-20T19:22:42.658Z,98910.59
2022-08-20T19:25:30.843Z,98907.78
2022-08-20T19:28:06.584Z,98911.16
2022-08-20T19:30:41.638Z,98912.41
2022-08-20T19:33:09.851Z,98909.50
2022-08-20T19:35:41.183Z,98920.09
2022-08-20T19:38:16.858Z,98913.16
2022-08-20T19:40:46.237Z,98920.16
2022-08-20T19:43:19.721Z,98917.44
2022-08-20T19:45:56.997Z,98919.84
2022-08-20T19:49:25.045Z,98913.75
2022-08-20T19:52:38.827Z,98928.50
2022-08-20T19:56:21.577Z,98930.03
2022-08-20T20:00:06.818Z,98924.06
2022-08-20T20:03:49.874Z,98933.19
2022-08-20T20:07:33.018Z,98938.41
2022-08-20T20:11:16.127Z,98939.97
2022-08-20T20:14:58.848Z,98928.34
2022-08-20T20:18:41.636Z,98921.69
2022-08-20T20:22:23.853Z,98939.41
2022-08-20T20:26:06.640Z,98936.88
2022-08-20T20:29:49.878Z,98927.69
2022-08-20T20:33:33.073Z,98935.81
2022-08-20T20:37:15.994Z,98938.13
2022-08-20T20:41:17.841Z,98935.56
2022-08-20T20:45:01.068Z,98939.53
2022-08-20T20:48:45.984Z,98942.91
2022-08-20T20:51:26.068Z,98933.47
2022-08-20T20:55:05.374Z,98941.84
2022-08-20T20:57:37.999Z,98947.13
2022-08-20T21:00:13.716Z,98948.41
2022-08-20T21:02:41.507Z,98941.72
2022-08-20T21:05:11.696Z,98941.09
2022-08-20T21:08:14.233Z,98941.63
2022-08-20T21:10:43.362Z,98944.94
2022-08-20T21:13:11.682Z,98946.84
2022-08-20T21:15:40.076Z,98946.09
2022-08-20T21:18:09.240Z,98945.41
2022-08-20T21:20:37.341Z,98939.63
2022-08-20T21:23:05.408Z,98946.47
2022-08-20T21:25:34.518Z,98944.25
2022-08-20T21:28:02.429Z,98945.72
2022-08-20T21:30:30.152Z,98944.75
2022-08-20T21:32:57.648Z,98952.81
2022-08-20T21:35:25.421Z,98943.06
2022-08-20T21:37:52.743Z,98950.47
2022-08-20T21:40:21.788Z,98943.47
2022-08-20T21:42:49.463Z,98946.13
2022-08-20T21:45:19.551Z,98953.94
2022-08-20T21:47:48.916Z,98949.38
2022-08-20T21:50:20.171Z,98950.59
2022-08-20T21:52:59.871Z,98954.13
2022-08-20T21:55:34.071Z,98954.25
2022-08-20T21:58:05.979Z,98956.66
2022-08-20T22:01:00.178Z,98963.50
2022-08-20T22:03:33.665Z,98963.97
2022-08-20T22:06:07.463Z,98968.31
2022-08-20T22:08:35.168Z,98962.63
2022-08-20T22:11:05.058Z,98966.41
2022-08-20T22:13:34.234Z,98965.31
2022-08-20T22:16:08.923Z,98968.28
2022-08-20T22:18:37.255Z,98963.59
2022-08-20T22:21:11.360Z,98965.00
2022-08-20T22:23:40.141Z,98969.16
2022-08-20T22:26:09.258Z,98969.47
2022-08-20T22:28:37.425Z,98976.03
2022-08-20T22:31:06.211Z,98975.00
2022-08-20T22:33:35.162Z,98967.22
2022-08-20T22:36:06.951Z,98969.81
2022-08-20T22:38:34.380Z,98966.41
2022-08-20T22:41:04.176Z,98967.28
2022-08-20T22:43:33.643Z,98974.66
2022-08-20T22:46:03.834Z,98976.44
2022-08-20T22:48:31.285Z,98976.31
2022-08-20T22:50:59.045Z,98977.50
2022-08-20T22:53:28.075Z,98965.13
2022-08-20T22:55:55.829Z,98974.34
2022-08-20T22:58:31.211Z,98968.41
2022-08-20T23:01:02.202Z,98963.94
2022-08-20T23:03:39.518Z,98978.47
2022-08-20T23:06:10.342Z,98968.44
2022-08-20T23:08:39.816Z,98968.06
2022-08-20T23:11:08.058Z,98963.81
2022-08-20T23:13:35.485Z,98968.06
2022-08-20T23:16:04.690Z,98961.91
2022-08-20T23:18:32.679Z,98957.22
2022-08-20T23:21:00.767Z,98965.09
2022-08-20T23:23:28.332Z,98972.31
2022-08-20T23:25:56.187Z,98963.81
2022-08-20T23:28:26.578Z,98968.00
2022-08-20T23:30:54.130Z,98964.59
2022-08-20T23:33:21.669Z,98966.31
2022-08-20T23:35:49.719Z,98966.38
2022-08-20T23:38:17.616Z,98973.38
2022-08-20T23:40:45.006Z,98970.84
2022-08-20T23:43:12.229Z,98964.03
2022-08-20T23:45:40.370Z,98966.31
2022-08-20T23:48:09.470Z,98959.78
2022-08-20T23:50:38.132Z,98965.13
2022-08-20T23:53:06.193Z,98951.34
2022-08-20T23:55:34.666Z,98952.16
2022-08-20T23:58:02.383Z,98952.94
